createdAt,value
2023-04-08T00:00:48.267Z,99.90
2023-04-08T00:03:38.234Z,99.90
2023-04-08T00:06:27.342Z,99.90
2023-04-08T00:09:15.851Z,99.90
2023-04-08T00:12:04.327Z,99.90
2023-04-08T00:14:52.758Z,99.90
2023-04-08T00:17:41.642Z,99.90
2023-04-08T00:20:31.532Z,99.90
2023-04-08T00:23:21.370Z,99.90
2023-04-08T00:26:09.807Z,99.90
2023-04-08T00:28:58.259Z,99.90
2023-04-08T00:31:46.636Z,99.90
2023-04-08T00:34:35.092Z,99.90
2023-04-08T00:40:14.199Z,99.90
2023-04-08T00:43:02.702Z,99.90
2023-04-08T00:45:51.386Z,99.90
2023-04-08T00:48:39.923Z,99.90
2023-04-08T00:51:28.400Z,99.90
2023-04-08T00:54:18.167Z,99.90
2023-04-08T00:57:07.301Z,99.90
2023-04-08T00:59:55.875Z,99.90
2023-04-08T01:02:49.109Z,99.90
2023-04-08T01:05:47.092Z,99.90
2023-04-08T01:08:37.815Z,99.90
2023-04-08T01:11:30.520Z,99.90
2023-04-08T01:14:22.665Z,99.90
2023-04-08T01:17:11.833Z,99.90
2023-04-08T01:20:01.996Z,99.90
2023-04-08T01:23:22.024Z,99.90
2023-04-08T01:29:04.323Z,99.90
2023-04-08T01:31:54.439Z,99.90
2023-04-08T01:34:44.175Z,99.90
2023-04-08T01:37:34.105Z,99.90
2023-04-08T01:40:22.682Z,99.90
2023-04-08T01:43:15.647Z,99.90
2023-04-08T01:46:04.202Z,99.90
2023-04-08T01:48:53.551Z,99.90
2023-04-08T01:51:42.765Z,99.90
2023-04-08T01:54:31.304Z,99.90
2023-04-08T01:57:25.579Z,99.90
2023-04-08T02:00:16.898Z,99.90
2023-04-08T02:03:08.045Z,99.90
2023-04-08T02:05:56.651Z,99.90
2023-04-08T02:08:46.042Z,99.90
2023-04-08T02:11:34.451Z,99.90
2023-04-08T02:14:23.011Z,99.90
2023-04-08T02:17:15.751Z,99.90
2023-04-08T02:20:08.657Z,99.90
2023-04-08T02:23:03.438Z,99.90
2023-04-08T02:25:54.171Z,99.90
2023-04-08T02:28:43.309Z,99.90
2023-04-08T02:31:32.269Z,99.90
2023-04-08T02:34:23.447Z,99.90
2023-04-08T02:37:12.111Z,99.90
2023-04-08T02:40:00.956Z,99.90
2023-04-08T02:42:49.443Z,99.90
2023-04-08T02:45:42.766Z,99.90
2023-04-08T02:48:31.393Z,99.90
2023-04-08T02:51:21.571Z,99.90
2023-04-08T02:54:09.984Z,99.90
2023-04-08T02:56:58.439Z,99.90
2023-04-08T02:59:46.878Z,99.90
2023-04-08T03:02:35.723Z,99.90
2023-04-08T03:05:24.360Z,99.90
2023-04-08T03:08:14.178Z,99.90
2023-04-08T03:13:51.473Z,99.90
2023-04-08T03:16:39.888Z,99.90
2023-04-08T03:19:28.344Z,99.90
2023-04-08T03:22:16.804Z,99.90
2023-04-08T03:25:07.590Z,99.90
2023-04-08T03:27:56.124Z,99.90
2023-04-08T03:30:44.790Z,99.90
2023-04-08T03:33:33.662Z,99.90
2023-04-08T03:36:22.135Z,99.90
2023-04-08T03:39:10.976Z,99.90
2023-04-08T03:42:01.225Z,99.90
2023-04-08T03:44:49.645Z,99.90
2023-04-08T03:47:38.076Z,99.90
2023-04-08T03:50:26.512Z,99.90
2023-04-08T03:53:15.160Z,99.90
2023-04-08T03:56:04.576Z,99.90
2023-04-08T03:58:54.444Z,99.90
2023-04-08T04:01:42.879Z,99.90
2023-04-08T04:04:31.343Z,99.90
2023-04-08T04:07:19.828Z,99.90
2023-04-08T04:10:10.410Z,99.90
2023-04-08T04:12:58.884Z,99.90
2023-04-08T04:15:48.684Z,99.90
2023-04-08T04:18:37.153Z,99.90
2023-04-08T04:21:25.603Z,99.90
2023-04-08T04:24:14.578Z,99.90
2023-04-08T04:27:03.210Z,99.90
2023-04-08T04:29:51.637Z,99.90
2023-04-08T04:32:41.601Z,99.90
2023-04-08T04:35:30.088Z,99.90
2023-04-08T04:38:18.537Z,99.90
2023-04-08T04:41:07.079Z,99.90
2023-04-08T04:43:55.496Z,99.90
2023-04-08T04:46:44.003Z,99.90
2023-04-08T04:49:33.804Z,99.90
2023-04-08T04:52:22.287Z,99.90
2023-04-08T04:55:11.798Z,99.90
2023-04-08T04:58:00.298Z,99.90
2023-04-08T05:00:48.695Z,99.90
2023-04-08T05:03:37.164Z,99.90
2023-04-08T05:06:27.639Z,99.90
2023-04-08T05:09:16.098Z,99.90
2023-04-08T05:12:04.638Z,99.90
2023-04-08T05:14:53.047Z,99.90
2023-04-08T05:17:41.521Z,99.90
2023-04-08T05:20:30.292Z,99.90
2023-04-08T05:23:20.387Z,99.90
2023-04-08T05:26:09.751Z,99.90
2023-04-08T05:28:58.473Z,99.90
2023-04-08T05:31:47.035Z,99.90
2023-04-08T05:34:35.638Z,99.90
2023-04-08T05:37:24.093Z,99.90
2023-04-08T05:40:14.243Z,99.90
2023-04-08T05:43:02.682Z,99.90
2023-04-08T05:45:51.285Z,99.90
2023-04-08T05:48:39.703Z,99.90
2023-04-08T05:51:28.219Z,99.90
2023-04-08T05:54:16.695Z,99.90
2023-04-08T05:57:08.106Z,99.90
2023-04-08T05:59:57.632Z,99.90
2023-04-08T06:02:46.276Z,99.90
2023-04-08T06:05:34.932Z,99.90
2023-04-08T06:08:23.705Z,99.90
2023-04-08T06:11:12.238Z,99.90
2023-04-08T06:14:02.055Z,99.90
2023-04-08T06:16:50.555Z,99.90
2023-04-08T06:19:39.069Z,99.90
2023-04-08T06:22:27.563Z,99.90
2023-04-08T06:25:16.042Z,99.90
2023-04-08T06:28:04.524Z,99.90
2023-04-08T06:30:54.286Z,99.90
2023-04-08T06:33:42.846Z,99.90
2023-04-08T06:36:31.633Z,99.90
2023-04-08T06:39:21.627Z,99.90
2023-04-08T06:42:10.106Z,99.90
2023-04-08T06:44:58.679Z,99.90
2023-04-08T06:47:48.517Z,99.90
2023-04-08T06:50:37.135Z,99.90
2023-04-08T06:53:25.764Z,99.90
2023-04-08T06:56:14.179Z,99.90
2023-04-08T06:59:03.169Z,99.90
2023-04-08T07:01:51.788Z,99.90
2023-04-08T07:04:41.787Z,99.90
2023-04-08T07:07:30.292Z,99.90
2023-04-08T07:10:18.815Z,99.90
2023-04-08T07:13:07.339Z,99.90
2023-04-08T07:15:55.746Z,99.90
2023-04-08T07:18:44.244Z,99.90
2023-04-08T07:21:34.070Z,99.90
2023-04-08T07:24:22.498Z,99.90
2023-04-08T07:27:11.030Z,99.90
2023-04-08T07:29:59.557Z,99.90
2023-04-08T07:32:48.097Z,99.90
2023-04-08T07:35:36.626Z,99.90
2023-04-08T07:38:26.571Z,99.90
2023-04-08T07:41:15.025Z,99.90
2023-04-08T07:44:03.466Z,99.90
2023-04-08T07:46:52.010Z,99.90
2023-04-08T07:49:40.614Z,99.90
2023-04-08T07:52:29.086Z,99.90
2023-04-08T07:55:19.015Z,99.90
2023-04-08T07:58:07.575Z,99.90
2023-04-08T08:00:57.342Z,99.90
2023-04-08T08:03:46.187Z,99.90
2023-04-08T08:06:34.753Z,99.90
2023-04-08T08:09:23.215Z,99.90
2023-04-08T08:12:13.082Z,99.90
2023-04-08T08:15:01.525Z,99.90
2023-04-08T08:17:49.978Z,99.90
2023-04-08T08:20:38.452Z,99.90
2023-04-08T08:23:27.219Z,99.90
2023-04-08T08:26:15.894Z,99.90
2023-04-08T08:29:06.507Z,99.90
2023-04-08T08:31:54.901Z,99.90
2023-04-08T08:34:43.293Z,99.90
2023-04-08T08:37:31.712Z,99.90
2023-04-08T08:43:08.971Z,99.90
2023-04-08T08:45:59.464Z,99.90
2023-04-08T08:48:48.064Z,99.90
2023-04-08T08:51:37.152Z,99.90
2023-04-08T08:54:26.208Z,99.90
2023-04-08T08:57:23.649Z,99.90
2023-04-08T09:00:16.070Z,99.90
2023-04-08T09:03:22.985Z,99.90
2023-04-08T09:06:12.751Z,99.90
2023-04-08T09:09:02.790Z,99.90
2023-04-08T09:11:51.364Z,99.90
2023-04-08T09:14:39.894Z,99.90
2023-04-08T09:17:35.377Z,99.90
2023-04-08T09:20:25.375Z,99.90
2023-04-08T09:23:13.866Z,99.90
2023-04-08T09:26:09.323Z,99.90
2023-04-08T09:29:08.453Z,99.90
2023-04-08T09:34:52.244Z,99.90
2023-04-08T09:40:35.022Z,99.90
2023-04-08T09:43:26.386Z,99.90
2023-04-08T09:46:15.249Z,99.90
2023-04-08T09:49:07.475Z,99.90
2023-04-08T09:52:05.335Z,99.90
2023-04-08T09:55:03.169Z,99.90
2023-04-08T09:57:56.740Z,99.90
2023-04-08T10:00:50.738Z,99.90
2023-04-08T10:03:46.795Z,99.90
2023-04-08T10:06:37.075Z,99.90
2023-04-08T10:09:25.844Z,99.90
2023-04-08T10:12:16.194Z,99.90
2023-04-08T10:15:28.901Z,99.90
2023-04-08T10:18:38.386Z,99.90
2023-04-08T10:21:43.734Z,99.90
2023-04-08T10:24:32.182Z,99.90
2023-04-08T10:27:41.294Z,99.90
2023-04-08T10:30:43.233Z,99.90
2023-04-08T10:33:37.257Z,99.90
2023-04-08T10:36:28.108Z,99.90
2023-04-08T10:39:17.441Z,99.90
2023-04-08T10:42:09.446Z,99.90
2023-04-08T10:45:03.403Z,99.90
2023-04-08T10:50:41.286Z,99.90
2023-04-08T10:53:30.771Z,99.90
2023-04-08T10:56:19.658Z,99.90
2023-04-08T10:59:08.143Z,99.90
2023-04-08T11:04:48.365Z,99.90
2023-04-08T11:07:42.094Z,99.90
2023-04-08T11:10:32.037Z,99.90
2023-04-08T11:16:17.725Z,99.90
2023-04-08T11:19:08.973Z,99.90
2023-04-08T11:21:57.567Z,99.90
2023-04-08T11:24:46.258Z,99.90
2023-04-08T11:27:35.882Z,99.90
2023-04-08T11:30:25.189Z,99.90
2023-04-08T11:33:15.118Z,99.20
2023-04-08T11:36:05.629Z,99.90
2023-04-08T11:38:55.541Z,98.20
2023-04-08T11:41:44.545Z,99.90
2023-04-08T11:44:33.793Z,98.60
2023-04-08T11:47:22.319Z,98.60
2023-04-08T11:50:11.438Z,98.10
2023-04-08T11:53:01.259Z,97.70
2023-04-08T11:55:50.355Z,96.50
2023-04-08T11:58:38.805Z,99.90
2023-04-08T12:04:16.968Z,93.70
2023-04-08T12:07:05.534Z,92.80
2023-04-08T12:09:55.610Z,92.40
2023-04-08T12:12:44.029Z,92.90
2023-04-08T12:15:32.842Z,93.20
2023-04-08T12:18:21.401Z,92.10
2023-04-08T12:21:09.865Z,91.00
2023-04-08T12:23:58.316Z,91.00
2023-04-08T12:26:48.104Z,90.40
2023-04-08T12:29:36.561Z,91.00
2023-04-08T12:32:25.614Z,90.20
2023-04-08T12:35:15.031Z,90.00
2023-04-08T12:38:03.611Z,91.40
2023-04-08T12:40:52.144Z,91.30
2023-04-08T12:43:42.048Z,91.20
2023-04-08T12:46:30.651Z,90.80
2023-04-08T12:49:19.111Z,90.30
2023-04-08T12:52:07.572Z,90.80
2023-04-08T12:54:56.104Z,90.70
2023-04-08T12:57:44.572Z,90.60
2023-04-08T13:00:34.507Z,91.00
2023-04-08T13:03:23.036Z,90.20
2023-04-08T13:17:28.352Z,90.60
2023-04-08T13:20:16.938Z,90.50
2023-04-08T13:23:05.795Z,89.30
2023-04-08T13:25:54.325Z,88.00
2023-04-08T13:28:55.973Z,89.30
2023-04-08T13:31:46.115Z,89.60
2023-04-08T13:34:36.061Z,88.00
2023-04-08T13:37:24.573Z,89.30
2023-04-08T13:40:13.371Z,89.50
2023-04-08T13:43:02.268Z,90.10
2023-04-08T13:45:50.698Z,89.20
2023-04-08T13:48:39.220Z,86.90
2023-04-08T13:51:29.067Z,86.70
2023-04-08T13:54:17.516Z,87.20
2023-04-08T13:57:06.180Z,87.20
2023-04-08T14:02:43.544Z,85.30
2023-04-08T14:05:32.139Z,85.80
2023-04-08T14:08:25.533Z,85.80
2023-04-08T14:11:14.321Z,84.80
2023-04-08T14:14:02.812Z,82.30
2023-04-08T14:16:51.328Z,83.90
2023-04-08T14:19:39.885Z,84.60
2023-04-08T14:22:28.313Z,84.90
2023-04-08T14:25:18.317Z,85.40
2023-04-08T14:42:12.662Z,86.40
2023-04-08T14:45:01.526Z,86.80
2023-04-08T14:47:50.069Z,86.80
2023-04-08T14:50:38.598Z,86.20
2023-04-08T14:53:27.287Z,85.50
2023-04-08T14:56:15.725Z,85.80
2023-04-08T14:59:06.008Z,84.60
2023-04-08T15:01:54.490Z,85.90
2023-04-08T15:04:42.967Z,87.20
2023-04-08T15:07:31.987Z,87.60
2023-04-08T15:10:20.577Z,87.00
2023-04-08T15:13:09.172Z,86.70
2023-04-08T15:15:59.114Z,87.90
2023-04-08T15:21:36.283Z,87.50
2023-04-08T15:24:24.774Z,88.20
2023-04-08T15:27:13.173Z,88.30
2023-04-08T15:30:02.217Z,88.70
2023-04-08T15:32:52.654Z,88.30
2023-04-08T15:35:41.189Z,88.60
2023-04-08T15:38:29.744Z,88.50
2023-04-08T15:41:19.220Z,89.00
2023-04-08T15:44:07.701Z,89.20
2023-04-08T15:46:56.630Z,89.80
2023-04-08T15:52:35.587Z,87.70
2023-04-08T15:55:24.075Z,89.00
2023-04-08T15:58:12.502Z,88.90
2023-04-08T16:01:01.267Z,88.50
2023-04-08T16:03:49.837Z,89.80
2023-04-08T16:06:39.721Z,90.40
2023-04-08T16:09:28.163Z,91.10
2023-04-08T16:12:16.566Z,91.10
2023-04-08T16:15:05.577Z,91.60
2023-04-08T16:17:54.164Z,91.20
2023-04-08T16:20:42.765Z,91.20
2023-04-08T16:23:34.093Z,91.30
2023-04-08T16:26:24.221Z,91.70
2023-04-08T16:29:12.661Z,92.00
2023-04-08T16:32:01.604Z,91.90
2023-04-08T16:34:50.035Z,91.70
2023-04-08T16:37:38.424Z,92.40
2023-04-08T16:40:28.403Z,92.60
2023-04-08T16:43:16.906Z,92.80
2023-04-08T16:46:12.318Z,92.90
2023-04-08T16:49:01.320Z,93.10
2023-04-08T16:51:49.856Z,93.80
2023-04-08T16:54:38.259Z,94.40
2023-04-08T16:57:28.430Z,94.90
2023-04-08T17:00:19.694Z,99.50
2023-04-08T17:03:09.546Z,95.30
2023-04-08T17:06:07.455Z,95.90
2023-04-08T17:11:44.992Z,95.90
2023-04-08T17:14:34.918Z,96.70
2023-04-08T17:17:23.430Z,96.90
2023-04-08T17:20:12.915Z,97.00
2023-04-08T17:23:01.563Z,97.10
2023-04-08T17:25:50.063Z,97.20
2023-04-08T17:28:38.603Z,97.40
2023-04-08T17:31:28.653Z,97.60
2023-04-08T17:34:17.179Z,97.70
2023-04-08T18:41:58.919Z,99.90
2023-04-08T18:44:47.450Z,99.90
2023-04-08T18:47:36.440Z,99.90
2023-04-08T18:50:25.161Z,99.90
2023-04-08T18:53:14.037Z,99.90
2023-04-08T18:56:04.769Z,99.90
2023-04-08T18:58:54.739Z,99.90
2023-04-08T19:01:43.983Z,99.90
2023-04-08T19:04:33.518Z,99.90
2023-04-08T19:07:22.138Z,99.90
2023-04-08T19:10:11.097Z,99.90
2023-04-08T19:13:00.978Z,99.90
2023-04-08T19:15:49.900Z,99.90
2023-04-08T19:18:38.470Z,99.90
2023-04-08T19:21:27.296Z,99.90
2023-04-08T19:24:15.850Z,99.90
2023-04-08T19:27:04.437Z,99.90
2023-04-08T19:29:54.224Z,99.90
2023-04-08T19:32:43.201Z,99.90
2023-04-08T19:35:31.833Z,99.90
2023-04-08T19:38:20.285Z,99.90
2023-04-08T19:41:08.790Z,99.90
2023-04-08T19:43:57.235Z,99.90
2023-04-08T19:46:47.107Z,99.90
2023-04-08T19:49:35.728Z,99.90
2023-04-08T19:52:24.138Z,99.90
2023-04-08T19:55:12.712Z,99.90
2023-04-08T20:00:50.098Z,99.90
2023-04-08T20:03:40.339Z,99.90
2023-04-08T20:06:28.877Z,99.90
2023-04-08T20:09:17.273Z,99.90
2023-04-08T20:12:06.265Z,99.90
2023-04-08T20:14:54.763Z,99.90
2023-04-08T20:17:43.288Z,99.90
2023-04-08T20:20:33.128Z,99.90
2023-04-08T20:23:21.890Z,99.90
2023-04-08T20:26:10.320Z,99.90
2023-04-08T20:28:59.154Z,99.90
2023-04-08T20:31:47.853Z,99.90
2023-04-08T20:34:36.329Z,99.90
2023-04-08T20:37:26.345Z,99.90
2023-04-08T20:40:16.966Z,99.90
2023-04-08T20:43:06.551Z,99.90
2023-04-08T20:45:54.975Z,99.90
2023-04-08T20:48:43.426Z,99.90
2023-04-08T20:51:32.585Z,99.90
2023-04-08T20:54:22.633Z,99.90
2023-04-08T20:57:11.088Z,99.90
2023-04-08T20:59:59.634Z,99.90
2023-04-08T21:02:48.491Z,99.90
2023-04-08T21:05:38.769Z,99.90
2023-04-08T21:08:27.308Z,99.90
2023-04-08T21:11:17.399Z,99.90
2023-04-08T21:14:05.834Z,99.90
2023-04-08T21:16:54.203Z,99.90
2023-04-08T21:19:42.755Z,99.90
2023-04-08T21:22:32.280Z,99.90
2023-04-08T21:25:20.820Z,99.90
2023-04-08T21:28:10.686Z,99.90
2023-04-08T21:31:09.005Z,99.90
2023-04-08T21:33:57.550Z,99.90
2023-04-08T21:36:46.071Z,99.90
2023-04-08T21:39:34.478Z,99.90
2023-04-08T21:42:25.102Z,99.90
2023-04-08T21:45:15.428Z,99.90
2023-04-08T21:48:03.835Z,99.90
2023-04-08T21:50:53.142Z,99.90
2023-04-08T21:53:41.540Z,99.90
2023-04-08T21:56:30.031Z,99.90
2023-04-08T21:59:19.203Z,99.90
2023-04-08T22:02:11.253Z,99.90
2023-04-08T22:05:00.235Z,99.90
2023-04-08T22:07:48.792Z,99.90
2023-04-08T22:10:37.251Z,99.90
2023-04-08T22:13:25.929Z,99.90
2023-04-08T22:16:14.601Z,99.90
2023-04-08T22:19:04.406Z,99.90
2023-04-08T22:21:52.793Z,99.90
2023-04-08T22:24:41.453Z,99.90
2023-04-08T22:27:29.982Z,99.90
2023-04-08T22:30:18.488Z,99.90
2023-04-08T22:33:06.945Z,99.90
2023-04-08T22:35:58.107Z,99.90
2023-04-08T22:38:47.423Z,99.90
2023-04-08T22:41:36.034Z,99.90
2023-04-08T22:44:24.550Z,99.90
2023-04-08T22:50:01.758Z,99.90
2023-04-08T22:52:51.612Z,99.90
2023-04-08T22:55:40.116Z,99.90
2023-04-08T22:58:28.556Z,99.90
2023-04-08T23:01:20.852Z,99.90
2023-04-08T23:04:09.472Z,99.90
2023-04-08T23:06:58.094Z,99.90
2023-04-08T23:09:47.864Z,99.90
2023-04-08T23:12:36.276Z,99.90
2023-04-08T23:15:24.853Z,99.90
2023-04-08T23:18:13.298Z,99.90
2023-04-08T23:21:01.686Z,99.90
2023-04-08T23:23:50.149Z,99.90
2023-04-08T23:26:39.932Z,99.90
2023-04-08T23:29:28.349Z,99.90
2023-04-08T23:32:16.808Z,99.90
2023-04-08T23:35:06.311Z,99.90
2023-04-08T23:37:54.812Z,99.90
2023-04-08T23:40:43.329Z,99.90
2023-04-08T23:43:33.188Z,99.90
2023-04-08T23:46:21.709Z,99.90
2023-04-08T23:49:10.194Z,99.90
2023-04-08T23:51:58.643Z,99.90
2023-04-08T23:54:51.129Z,99.90
2023-04-08T23:57:42.294Z,99.90
